Time;durP1;ratioP1;P1;durP2;ratioP2;P2;SDS_P1;SDS_P2;PMS_P1;PMS_P2;Temp;Humidity;BMP_temperature;BMP_pressure;BME280_temperature;BME280_humidity;BME280_pressure;Samples;Min_cycle;Max_cycle;Signal;HPM_P1;HPM_P2
2023/06/10 00:01:41;;;;;;;;;;;;;;;21.03;68.55;96544.03;615410;230;64884;-60
2023/06/10 00:04:08;;;;;;;;;;;;;;;21.02;68.56;96551.25;615412;230;67090;-60
2023/06/10 00:06:36;;;;;;;;;;;;;;;21.02;68.54;96545.91;615428;230;67075;-60
2023/06/10 00:09:10;;;;;;;;;;;;;;;21.02;68.57;96543.23;615419;230;62783;-60
2023/06/10 00:11:38;;;;;;;;;;;;;;;21.02;68.55;96548.58;615447;230;67203;-60
2023/06/10 00:14:06;;;;;;;;;;;;;;;21.02;68.55;96545.91;615377;229;67032;-60
2023/06/10 00:16:34;;;;;;;;;;;;;;;21.01;68.54;96549.67;615418;230;65003;-60
2023/06/10 00:19:02;;;;;;;;;;;;;;;21.01;68.55;96541.66;615387;230;66858;-60
2023/06/10 00:21:37;;;;;;;;;;;;;;;21.02;68.55;96553.13;615422;230;67006;-60
2023/06/10 00:24:02;;;;;;;;;;;;;;;21.01;68.54;96552.34;615288;230;64858;-60
2023/06/10 00:26:30;;;;;;;;;;;;;;;21.01;68.54;96552.34;615379;230;67442;-60
2023/06/10 00:28:58;;;;;;;;;;;;;;;21.01;68.53;96548.87;615423;230;67179;-60
2023/06/10 00:31:26;;;;;;;;;;;;;;;21.02;68.55;96548.58;615390;230;64892;-60
2023/06/10 00:33:53;;;;;;;;;;;;;;;21.01;68.55;96549.67;615406;230;66906;-60
2023/06/10 00:36:21;;;;;;;;;;;;;;;21.01;68.55;96548.87;615448;230;64860;-60
2023/06/10 00:38:49;;;;;;;;;;;;;;;21.01;68.53;96547.00;615454;228;65262;-61
2023/06/10 00:41:17;;;;;;;;;;;;;;;21.00;68.54;96545.39;615458;230;67878;-60
2023/06/10 00:43:45;;;;;;;;;;;;;;;21.01;68.54;96544.33;615389;230;66883;-60
2023/06/10 00:46:13;;;;;;;;;;;;;;;21.00;68.51;96545.39;615401;230;65010;-60
2023/06/10 00:48:42;;;;;;;;;;;;;;;21.01;68.54;96552.34;615413;230;64909;-60
2023/06/10 00:51:10;;;;;;;;;;;;;;;21.00;68.55;96553.40;615472;230;66843;-60
2023/06/10 00:53:39;;;;;;;;;;;;;;;21.01;68.56;96557.69;615415;230;62984;-60
2023/06/10 00:56:07;;;;;;;;;;;;;;;21.01;68.53;96562.23;615406;230;67041;-60
2023/06/10 00:58:36;;;;;;;;;;;;;;;21.01;68.53;96563.02;615410;230;67742;-60
2023/06/10 01:01:04;;;;;;;;;;;;;;;21.01;68.50;96557.69;609332;230;67753;-60
2023/06/10 01:03:36;;;;;;;;;;;;;;;21.01;68.50;96557.69;615460;230;67187;-60
2023/06/10 01:06:03;;;;;;;;;;;;;;;21.02;68.49;96563.81;615305;230;64545;-60
2023/06/10 01:08:33;;;;;;;;;;;;;;;21.01;68.47;96563.02;614311;230;65857;-60
2023/06/10 01:11:01;;;;;;;;;;;;;;;21.01;68.44;96568.37;615389;230;64962;-59
2023/06/10 01:13:29;;;;;;;;;;;;;;;21.01;68.45;96559.56;617167;229;65265;-60
2023/06/10 01:15:58;;;;;;;;;;;;;;;21.00;68.44;96558.74;618845;227;65058;-60
2023/06/10 01:18:32;;;;;;;;;;;;;;;21.01;68.44;96560.36;618826;229;67208;-59
2023/06/10 01:20:59;;;;;;;;;;;;;;;21.00;68.43;96555.28;618819;229;65643;-59
2023/06/10 01:23:27;;;;;;;;;;;;;;;21.01;68.42;96555.02;618777;229;63807;-60
2023/06/10 01:25:59;;;;;;;;;;;;;;;21.00;68.41;96560.62;618794;229;67345;-60
2023/06/10 01:28:47;;;;;;;;;;;;;;;21.00;68.40;96558.74;618783;229;72028;-60
2023/06/10 01:31:21;;;;;;;;;;;;;;;21.00;68.39;96561.41;618803;229;62268;-59
2023/06/10 01:33:49;;;;;;;;;;;;;;;21.00;68.40;96558.74;618837;229;63495;-60
2023/06/10 01:36:18;;;;;;;;;;;;;;;21.00;68.40;96556.07;618829;229;65277;-60
2023/06/10 01:38:47;;;;;;;;;;;;;;;21.00;68.42;96561.41;618766;229;64968;-60
2023/06/10 01:41:16;;;;;;;;;;;;;;;20.99;68.42;96551.81;618809;229;65150;-60
2023/06/10 01:43:45;;;;;;;;;;;;;;;20.99;68.43;96553.70;618785;229;64785;-60
2023/06/10 01:46:14;;;;;;;;;;;;;;;21.00;68.40;96561.41;618821;229;65102;-60
2023/06/10 01:48:42;;;;;;;;;;;;;;;21.00;68.39;96557.95;618824;229;67541;-60
2023/06/10 01:51:10;;;;;;;;;;;;;;;21.00;68.36;96560.62;618788;229;66653;-60
2023/06/10 01:53:37;;;;;;;;;;;;;;;20.98;68.35;96558.25;618802;229;63020;-60
2023/06/10 01:56:05;;;;;;;;;;;;;;;21.00;68.36;96565.97;618803;229;64988;-60
2023/06/10 01:58:33;;;;;;;;;;;;;;;21.01;68.35;96559.56;618797;229;66988;-60
2023/06/10 02:01:01;;;;;;;;;;;;;;;21.00;68.32;96557.95;618771;229;62404;-60
2023/06/10 02:03:28;;;;;;;;;;;;;;;21.00;68.32;96563.30;618741;229;64962;-60
2023/06/10 02:05:56;;;;;;;;;;;;;;;20.99;68.32;96565.17;618810;229;64923;-60
2023/06/10 02:08:23;;;;;;;;;;;;;;;20.99;68.31;96559.83;618770;229;62802;-60
2023/06/10 02:10:50;;;;;;;;;;;;;;;20.99;68.31;96564.38;618789;229;67992;-60
2023/06/10 02:13:18;;;;;;;;;;;;;;;20.99;68.31;96565.17;617209;229;67214;-60
2023/06/10 02:15:46;;;;;;;;;;;;;;;21.00;68.31;96566.75;615426;230;65894;-60
2023/06/10 02:18:13;;;;;;;;;;;;;;;21.00;68.33;96572.10;615430;230;67135;-60
2023/06/10 02:20:41;;;;;;;;;;;;;;;21.00;68.28;96576.66;615464;230;66754;-60
2023/06/10 02:23:08;;;;;;;;;;;;;;;21.00;68.30;96574.77;615431;230;64724;-60
2023/06/10 02:25:37;;;;;;;;;;;;;;;20.99;68.28;96575.06;615448;230;67583;-60
2023/06/10 02:28:04;;;;;;;;;;;;;;;21.00;68.30;96572.10;615399;230;67411;-60
2023/06/10 02:30:32;;;;;;;;;;;;;;;20.99;68.30;96570.52;615438;228;63124;-61
2023/06/10 02:33:01;;;;;;;;;;;;;;;21.00;68.30;96574.77;615424;230;65061;-60
2023/06/10 02:35:29;;;;;;;;;;;;;;;20.99;68.30;96575.86;615418;230;64511;-60
2023/06/10 02:37:57;;;;;;;;;;;;;;;21.00;68.27;96565.97;615490;230;64998;-60
2023/06/10 02:40:25;;;;;;;;;;;;;;;20.98;68.30;96568.94;615411;230;64522;-60
2023/06/10 02:42:52;;;;;;;;;;;;;;;20.99;68.26;96567.84;615439;230;65027;-60
2023/06/10 02:45:20;;;;;;;;;;;;;;;20.99;68.26;96567.05;615453;230;65818;-60
2023/06/10 02:47:47;;;;;;;;;;;;;;;21.00;68.27;96568.64;615450;230;64626;-60
2023/06/10 02:50:15;;;;;;;;;;;;;;;20.99;68.23;96567.84;615486;230;66972;-61
2023/06/10 02:52:44;;;;;;;;;;;;;;;20.99;68.26;96565.17;614997;230;46140;-60
2023/06/10 02:55:12;;;;;;;;;;;;;;;20.99;68.25;96575.06;615427;230;67996;-60
2023/06/10 02:57:42;;;;;;;;;;;;;;;20.99;68.24;96581.20;615436;230;67448;-60
2023/06/10 03:00:10;;;;;;;;;;;;;;;21.00;68.21;96584.66;615427;230;65634;-60
2023/06/10 03:02:38;;;;;;;;;;;;;;;20.98;68.24;96576.95;615480;230;65091;-60
2023/06/10 03:05:09;;;;;;;;;;;;;;;20.99;68.18;96575.86;615496;230;67383;-60
2023/06/10 03:07:37;;;;;;;;;;;;;;;20.99;68.24;96581.20;615417;228;64932;-60
2023/06/10 03:10:06;;;;;;;;;;;;;;;20.98;68.23;96579.63;615438;230;64550;-60
2023/06/10 03:12:34;;;;;;;;;;;;;;;20.99;68.22;96581.20;615377;229;65053;-60
2023/06/10 03:15:03;;;;;;;;;;;;;;;21.00;68.21;96576.66;615426;230;62636;-60
2023/06/10 03:17:31;;;;;;;;;;;;;;;20.98;68.18;96576.95;615449;230;67675;-60
2023/06/10 03:19:59;;;;;;;;;;;;;;;20.98;68.18;96574.28;615410;230;67834;-60
2023/06/10 03:22:27;;;;;;;;;;;;;;;20.98;68.21;96576.13;615399;230;65056;-60
2023/06/10 03:25:06;;;;;;;;;;;;;;;20.99;68.17;96575.86;615369;230;44368;-60
2023/06/10 03:27:35;;;;;;;;;;;;;;;20.98;68.21;96576.95;609343;230;68302;-58
2023/06/10 03:30:04;;;;;;;;;;;;;;;20.98;68.20;96579.63;615455;230;65040;-59
2023/06/10 03:32:32;;;;;;;;;;;;;;;20.98;68.20;96578.80;615390;230;67245;-59
2023/06/10 03:35:00;;;;;;;;;;;;;;;20.98;68.22;96578.80;615453;230;66264;-60
2023/06/10 03:37:28;;;;;;;;;;;;;;;20.98;68.20;96586.81;615420;230;65745;-58
2023/06/10 03:39:56;;;;;;;;;;;;;;;20.97;68.17;96588.69;615432;230;64614;-59
2023/06/10 03:42:24;;;;;;;;;;;;;;;20.98;68.21;96584.14;615430;230;64825;-59
2023/06/10 03:44:52;;;;;;;;;;;;;;;20.98;68.16;96578.80;615414;230;65701;-59
2023/06/10 03:47:19;;;;;;;;;;;;;;;20.98;68.20;96586.81;615397;230;66985;-59
2023/06/10 03:49:47;;;;;;;;;;;;;;;20.98;68.20;96582.30;615437;230;67186;-59
2023/06/10 03:52:14;;;;;;;;;;;;;;;20.98;68.17;96584.96;615433;230;66010;-59
2023/06/10 03:54:43;;;;;;;;;;;;;;;20.97;68.19;96575.34;615384;230;64558;-59
2023/06/10 03:57:10;;;;;;;;;;;;;;;20.98;68.18;96581.47;615492;230;66780;-59
2023/06/10 03:59:38;;;;;;;;;;;;;;;20.98;68.21;96582.30;615424;228;64871;-59
2023/06/10 04:02:06;;;;;;;;;;;;;;;20.98;68.18;96584.96;615427;230;66809;-59
2023/06/10 04:04:34;;;;;;;;;;;;;;;20.98;68.20;96578.80;615402;230;64468;-59
2023/06/10 04:07:02;;;;;;;;;;;;;;;20.97;68.18;96575.34;615406;230;65046;-59
2023/06/10 04:09:29;;;;;;;;;;;;;;;20.97;68.21;96588.69;615479;230;67302;-59
2023/06/10 04:11:57;;;;;;;;;;;;;;;20.97;68.22;96588.69;615389;230;66976;-59
2023/06/10 04:14:25;;;;;;;;;;;;;;;20.98;68.22;96578.80;615335;229;62392;-59
2023/06/10 04:16:54;;;;;;;;;;;;;;;20.98;68.25;96594.83;615416;230;67987;-59
2023/06/10 04:19:22;;;;;;;;;;;;;;;20.97;68.24;96586.02;615416;230;67489;-59
2023/06/10 04:21:51;;;;;;;;;;;;;;;20.97;68.22;96591.36;615447;228;65794;-59
2023/06/10 04:24:20;;;;;;;;;;;;;;;20.97;68.24;96588.69;615447;230;43755;-59
2023/06/10 04:26:48;;;;;;;;;;;;;;;20.98;68.23;96594.83;615403;230;64891;-59
2023/06/10 04:29:15;;;;;;;;;;;;;;;20.97;68.24;96590.58;615412;230;65142;-59
2023/06/10 04:31:43;;;;;;;;;;;;;;;20.96;68.23;96592.45;615400;230;67069;-59
2023/06/10 04:34:10;;;;;;;;;;;;;;;20.97;68.22;96593.24;615469;230;67869;-59
2023/06/10 04:36:38;;;;;;;;;;;;;;;20.96;68.22;96597.80;615408;228;64884;-59
2023/06/10 04:39:06;;;;;;;;;;;;;;;20.97;68.22;96601.26;615387;230;67012;-59
2023/06/10 04:41:35;;;;;;;;;;;;;;;20.98;68.18;96600.17;615423;230;67801;-59
2023/06/10 04:44:03;;;;;;;;;;;;;;;20.97;68.15;96604.72;615404;230;65175;-59
2023/06/10 04:46:31;;;;;;;;;;;;;;;20.97;68.19;96598.59;615409;230;67854;-59
2023/06/10 04:48:59;;;;;;;;;;;;;;;20.97;68.18;96601.26;615468;230;66804;-59
2023/06/10 04:51:26;;;;;;;;;;;;;;;20.97;68.21;96607.39;615266;230;64906;-59
2023/06/10 04:53:54;;;;;;;;;;;;;;;20.97;68.21;96609.27;615385;230;67619;-59
2023/06/10 04:56:22;;;;;;;;;;;;;;;20.96;68.23;96597.80;615375;230;65296;-59
2023/06/10 04:58:49;;;;;;;;;;;;;;;20.97;68.21;96606.59;615413;230;63036;-59
2023/06/10 05:01:18;;;;;;;;;;;;;;;20.96;68.22;96608.48;615460;230;64810;-59
2023/06/10 05:03:46;;;;;;;;;;;;;;;20.96;68.22;96608.48;615414;228;66917;-60
2023/06/10 05:06:13;;;;;;;;;;;;;;;20.95;68.20;96609.57;615363;230;65025;-60
2023/06/10 05:08:41;;;;;;;;;;;;;;;20.96;68.19;96603.14;615429;230;67130;-60
2023/06/10 05:11:08;;;;;;;;;;;;;;;20.97;68.14;96611.94;615409;230;67051;-60
2023/06/10 05:13:36;;;;;;;;;;;;;;;20.96;68.14;96611.16;615457;229;65123;-60
2023/06/10 05:16:04;;;;;;;;;;;;;;;20.96;68.17;96611.16;615420;230;66934;-60
2023/06/10 05:18:32;;;;;;;;;;;;;;;20.96;68.17;96605.81;615406;230;67056;-60
2023/06/10 05:20:59;;;;;;;;;;;;;;;20.96;68.21;96605.81;615386;230;64991;-60
2023/06/10 05:23:27;;;;;;;;;;;;;;;20.96;68.19;96610.36;615413;230;65316;-60
2023/06/10 05:25:55;;;;;;;;;;;;;;;20.96;68.20;96607.69;615435;230;65077;-60
2023/06/10 05:28:22;;;;;;;;;;;;;;;20.97;68.18;96606.59;615429;230;65274;-60
2023/06/10 05:30:50;;;;;;;;;;;;;;;20.95;68.16;96609.57;615381;230;67174;-60
2023/06/10 05:33:17;;;;;;;;;;;;;;;20.96;68.20;96602.34;615397;230;67132;-60
2023/06/10 05:35:45;;;;;;;;;;;;;;;20.96;68.24;96603.14;615406;230;65004;-60
2023/06/10 05:38:12;;;;;;;;;;;;;;;20.95;68.21;96596.22;615506;230;66877;-60
2023/06/10 05:40:41;;;;;;;;;;;;;;;20.96;68.20;96599.67;609322;230;68193;-60
2023/06/10 05:43:09;;;;;;;;;;;;;;;20.95;68.22;96604.23;615419;230;65024;-60
2023/06/10 05:45:36;;;;;;;;;;;;;;;20.96;68.22;96605.81;615394;230;64560;-60
2023/06/10 05:48:04;;;;;;;;;;;;;;;20.96;68.20;96602.34;615413;230;64353;-60
2023/06/10 05:50:37;;;;;;;;;;;;;;;20.95;68.19;96596.22;615404;230;65036;-60
2023/06/10 05:53:01;;;;;;;;;;;;;;;20.96;68.23;96607.69;615267;230;67043;-60
2023/06/10 05:55:29;;;;;;;;;;;;;;;20.96;68.22;96603.14;615366;230;66624;-60
2023/06/10 05:58:00;;;;;;;;;;;;;;;20.96;68.25;96602.34;615418;230;63062;-60
2023/06/10 06:00:28;;;;;;;;;;;;;;;20.96;68.28;96597.00;615360;230;67091;-60
2023/06/10 06:02:59;;;;;;;;;;;;;;;20.94;68.30;96597.27;615235;230;66823;-60
2023/06/10 06:05:26;;;;;;;;;;;;;;;20.94;68.31;96594.60;609355;230;64321;-59
2023/06/10 06:07:54;;;;;;;;;;;;;;;20.95;68.30;96593.54;609313;230;66528;-60
2023/06/10 06:10:25;;;;;;;;;;;;;;;20.94;68.16;96599.94;608979;230;64338;-60
2023/06/10 06:12:52;;;;;;;;;;;;;;;20.93;68.90;96598.36;615751;229;62518;-60
2023/06/10 06:15:21;;;;;;;;;;;;;;;20.94;69.01;96599.16;606064;229;66677;-60
2023/06/10 06:17:48;;;;;;;;;;;;;;;20.96;68.77;96599.67;611694;229;67062;-60
2023/06/10 06:20:17;;;;;;;;;;;;;;;20.96;68.60;96600.47;618773;229;65026;-60
2023/06/10 06:22:45;;;;;;;;;;;;;;;20.97;68.55;96593.24;618697;229;67200;-59
2023/06/10 06:25:12;;;;;;;;;;;;;;;20.96;68.55;96586.32;618762;227;67763;-59
2023/06/10 06:27:40;;;;;;;;;;;;;;;20.97;68.52;96582.56;618784;227;65045;-59
2023/06/10 06:30:10;;;;;;;;;;;;;;;20.97;68.66;96582.56;618829;227;47831;-59
2023/06/10 06:32:37;;;;;;;;;;;;;;;20.97;68.66;96582.56;618819;229;67088;-59
2023/06/10 06:35:07;;;;;;;;;;;;;;;20.97;68.66;96578.01;618758;229;65117;-59
2023/06/10 06:37:35;;;;;;;;;;;;;;;20.98;68.71;96578.80;618748;227;67439;-60
2023/06/10 06:40:05;;;;;;;;;;;;;;;20.97;68.74;96572.66;618124;229;46772;-60
2023/06/10 06:42:32;;;;;;;;;;;;;;;20.97;68.74;96569.99;618763;229;65242;-59
2023/06/10 06:45:03;;;;;;;;;;;;;;;20.98;68.68;96570.78;618514;229;45839;-59
2023/06/10 06:47:31;;;;;;;;;;;;;;;20.98;68.68;96568.11;618806;229;67070;-60
2023/06/10 06:49:58;;;;;;;;;;;;;;;20.98;68.78;96562.77;618779;229;65187;-60
2023/06/10 06:52:26;;;;;;;;;;;;;;;20.99;68.79;96570.52;618763;229;67014;-61
2023/06/10 06:54:55;;;;;;;;;;;;;;;21.00;68.75;96566.75;618469;227;44389;-61
2023/06/10 06:57:26;;;;;;;;;;;;;;;20.99;68.81;96562.50;618754;227;62837;-60
2023/06/10 06:59:53;;;;;;;;;;;;;;;21.01;68.80;96556.89;618792;229;67096;-59
2023/06/10 07:02:21;;;;;;;;;;;;;;;20.99;68.83;96557.16;618786;229;66876;-60
2023/06/10 07:04:50;;;;;;;;;;;;;;;20.99;68.79;96557.16;611618;229;47033;-60
2023/06/10 07:07:20;;;;;;;;;;;;;;;21.00;68.80;96556.07;618762;229;49645;-60
2023/06/10 07:09:48;;;;;;;;;;;;;;;21.00;68.77;96550.73;618813;227;67055;-60
2023/06/10 07:12:17;;;;;;;;;;;;;;;21.01;68.85;96551.55;618667;229;64890;-60
2023/06/10 07:14:45;;;;;;;;;;;;;;;21.01;68.79;96552.34;615408;229;64821;-62
2023/06/10 07:17:17;;;;;;;;;;;;;;;21.01;68.81;96549.67;615435;230;64673;-60
2023/06/10 07:19:45;;;;;;;;;;;;;;;21.01;68.82;96549.67;615382;230;64915;-59
2023/06/10 07:22:12;;;;;;;;;;;;;;;21.02;68.75;96551.25;615431;230;67036;-59
2023/06/10 07:24:40;;;;;;;;;;;;;;;21.01;68.74;96554.22;615470;230;67447;-60
2023/06/10 07:27:08;;;;;;;;;;;;;;;21.01;68.80;96552.34;615407;229;62666;-61
2023/06/10 07:29:35;;;;;;;;;;;;;;;21.02;68.76;96547.79;615432;230;64853;-59
2023/06/10 07:32:04;;;;;;;;;;;;;;;21.02;68.80;96543.23;615352;230;67078;-60
2023/06/10 07:34:32;;;;;;;;;;;;;;;21.03;68.84;96550.19;615422;230;62825;-60
2023/06/10 07:37:00;;;;;;;;;;;;;;;21.02;68.86;96545.91;615449;230;64612;-61
2023/06/10 07:39:27;;;;;;;;;;;;;;;21.03;68.85;96546.70;615386;230;67074;-60
2023/06/10 07:41:56;;;;;;;;;;;;;;;21.03;68.87;96549.38;615435;230;65011;-60
2023/06/10 07:44:25;;;;;;;;;;;;;;;21.03;68.88;96550.19;615393;228;64236;-60
2023/06/10 07:46:52;;;;;;;;;;;;;;;21.03;68.87;96544.84;615395;230;67140;-60
2023/06/10 07:49:20;;;;;;;;;;;;;;;21.04;68.88;96545.64;615404;230;64921;-60
2023/06/10 07:51:48;;;;;;;;;;;;;;;21.03;68.83;96539.50;615443;230;67366;-60
2023/06/10 07:54:16;;;;;;;;;;;;;;;21.03;68.84;96542.17;615407;230;67038;-59
2023/06/10 07:56:43;;;;;;;;;;;;;;;21.03;68.85;96534.16;615403;230;65045;-59
2023/06/10 07:59:11;;;;;;;;;;;;;;;21.04;68.87;96540.30;615380;230;64872;-59
2023/06/10 08:01:42;;;;;;;;;;;;;;;21.04;68.84;96543.76;615396;230;64724;-60
2023/06/10 08:04:09;;;;;;;;;;;;;;;21.05;68.84;96544.55;615453;230;64919;-60
2023/06/10 08:06:37;;;;;;;;;;;;;;;21.05;68.85;96544.55;615405;230;64977;-60
2023/06/10 08:09:04;;;;;;;;;;;;;;;21.04;68.79;96535.74;615426;230;66549;-59
2023/06/10 08:11:32;;;;;;;;;;;;;;;21.05;68.87;96542.67;615367;230;64906;-59
2023/06/10 08:13:59;;;;;;;;;;;;;;;21.05;68.91;96534.66;615355;229;67209;-60
2023/06/10 08:16:27;;;;;;;;;;;;;;;21.05;68.89;96536.53;615470;230;67033;-60
2023/06/10 08:18:54;;;;;;;;;;;;;;;21.05;68.85;96531.98;615397;228;65210;-60
2023/06/10 08:21:22;;;;;;;;;;;;;;;21.05;68.85;96526.64;615433;230;64861;-60
2023/06/10 08:23:51;;;;;;;;;;;;;;;21.05;68.85;96531.98;615394;230;65147;-60
2023/06/10 08:26:18;;;;;;;;;;;;;;;21.06;68.84;96532.77;615362;230;59732;-60
2023/06/10 08:28:45;;;;;;;;;;;;;;;21.05;68.86;96534.66;615433;230;67135;-60
2023/06/10 08:31:13;;;;;;;;;;;;;;;21.06;68.88;96530.92;615438;230;66786;-61
2023/06/10 08:33:42;;;;;;;;;;;;;;;21.08;68.92;96529.83;615418;228;65160;-59
2023/06/10 08:36:09;;;;;;;;;;;;;;;21.07;68.89;96523.70;615403;230;67402;-60
2023/06/10 08:38:37;;;;;;;;;;;;;;;21.06;68.93;96530.92;615349;230;66147;-60
2023/06/10 08:41:06;;;;;;;;;;;;;;;21.07;68.93;96526.37;615440;230;63071;-60
2023/06/10 08:43:41;;;;;;;;;;;;;;;21.07;68.96;96523.70;615406;230;67144;-60
2023/06/10 08:46:11;;;;;;;;;;;;;;;21.06;68.97;96522.91;615497;230;45065;-60
2023/06/10 08:48:40;;;;;;;;;;;;;;;21.07;68.95;96523.70;615271;230;65037;-59
2023/06/10 08:51:10;;;;;;;;;;;;;;;21.06;68.95;96514.89;615376;230;67823;-59
2023/06/10 08:53:39;;;;;;;;;;;;;;;21.08;68.91;96519.14;615431;230;65037;-59
2023/06/10 08:56:07;;;;;;;;;;;;;;;21.08;68.92;96511.13;615378;230;62851;-59
2023/06/10 08:58:40;;;;;;;;;;;;;;;21.08;68.92;96505.78;615422;230;66889;-59
2023/06/10 09:01:03;;;;;;;;;;;;;;;21.06;68.91;96501.53;615170;230;64854;-59
2023/06/10 09:03:33;;;;;;;;;;;;;;;21.08;68.90;96508.45;615278;230;62752;-59
2023/06/10 09:06:01;;;;;;;;;;;;;;;21.08;68.88;96498.56;615353;230;65146;-60
2023/06/10 09:08:28;;;;;;;;;;;;;;;21.08;68.89;96503.11;615413;230;67129;-60
2023/06/10 09:10:56;;;;;;;;;;;;;;;21.08;68.82;96497.77;615424;230;65103;-62
2023/06/10 09:13:24;;;;;;;;;;;;;;;21.08;68.84;96490.55;615358;229;64812;-60
2023/06/10 09:15:52;;;;;;;;;;;;;;;21.09;68.82;96491.34;615403;230;64833;-60
2023/06/10 09:18:19;;;;;;;;;;;;;;;21.08;68.81;96487.87;615383;230;62630;-60
2023/06/10 09:20:47;;;;;;;;;;;;;;;21.09;68.80;96494.01;615477;230;64990;-60
2023/06/10 09:23:16;;;;;;;;;;;;;;;21.08;68.76;96487.87;615448;230;64324;-60
2023/06/10 09:25:45;;;;;;;;;;;;;;;21.09;68.73;96488.66;615378;230;44876;-60
2023/06/10 09:28:14;;;;;;;;;;;;;;;21.09;68.79;96489.48;615409;230;67218;-60
2023/06/10 09:30:42;;;;;;;;;;;;;;;21.09;68.81;96486.81;615373;230;67047;-60
2023/06/10 09:33:21;;;;;;;;;;;;;;;21.09;68.76;96477.98;615445;230;63074;-60
2023/06/10 09:35:47;;;;;;;;;;;;;;;21.09;68.76;96477.98;615201;230;64816;-59
2023/06/10 09:38:16;;;;;;;;;;;;;;;21.10;68.80;96484.94;615432;230;66811;-59
2023/06/10 09:40:55;;;;;;;;;;;;;;;21.10;68.74;96484.94;615250;230;60892;-59
2023/06/10 09:43:22;;;;;;;;;;;;;;;21.10;68.72;96484.94;615381;230;64808;-59
2023/06/10 09:45:55;;;;;;;;;;;;;;;21.10;68.74;96479.59;615457;230;64334;-59
2023/06/10 09:48:20;;;;;;;;;;;;;;;21.11;68.76;96478.50;615337;230;63595;-59
2023/06/10 09:50:49;;;;;;;;;;;;;;;21.10;68.72;96475.03;615421;230;66927;-59
2023/06/10 09:53:18;;;;;;;;;;;;;;;21.10;68.72;96468.91;615408;230;64944;-59
2023/06/10 09:55:47;;;;;;;;;;;;;;;21.09;68.62;96462.77;615343;228;62911;-59
2023/06/10 09:58:15;;;;;;;;;;;;;;;21.12;68.63;96474.77;615406;230;64777;-59
2023/06/10 10:00:42;;;;;;;;;;;;;;;21.11;68.70;96476.61;615415;230;67038;-59
2023/06/10 10:03:10;;;;;;;;;;;;;;;21.11;68.68;96475.83;615457;230;65100;-59
2023/06/10 10:05:38;;;;;;;;;;;;;;;21.10;68.64;96472.36;615392;230;66742;-59
2023/06/10 10:08:06;;;;;;;;;;;;;;;21.12;68.66;96469.42;615393;228;66882;-59
2023/06/10 10:10:35;;;;;;;;;;;;;;;21.12;68.71;96464.08;615294;230;43699;-59
2023/06/10 10:13:03;;;;;;;;;;;;;;;21.12;68.67;96466.75;616551;229;66983;-59
2023/06/10 10:15:32;;;;;;;;;;;;;;;21.11;68.61;96467.81;618797;229;66945;-59
2023/06/10 10:18:04;;;;;;;;;;;;;;;21.11;68.59;96465.14;618746;229;65010;-59
2023/06/10 10:20:33;;;;;;;;;;;;;;;21.11;68.52;96465.92;618700;228;67448;-60
2023/06/10 10:23:02;;;;;;;;;;;;;;;21.11;68.54;96462.47;618744;227;64971;-60
2023/06/10 10:25:31;;;;;;;;;;;;;;;21.12;68.55;96461.41;618753;229;62887;-59
2023/06/10 10:28:00;;;;;;;;;;;;;;;21.12;68.51;96462.20;618781;227;67203;-59
2023/06/10 10:30:27;;;;;;;;;;;;;;;21.11;68.43;96455.24;618768;229;66861;-59
2023/06/10 10:32:59;;;;;;;;;;;;;;;21.12;68.50;96456.06;618689;229;65029;-59
2023/06/10 10:35:26;;;;;;;;;;;;;;;21.12;68.51;96456.06;618768;229;64827;-59
2023/06/10 10:37:55;;;;;;;;;;;;;;;21.12;68.43;96445.38;618833;229;67064;-59
2023/06/10 10:40:23;;;;;;;;;;;;;;;21.13;68.48;96449.63;618806;229;65110;-59
2023/06/10 10:42:53;;;;;;;;;;;;;;;21.13;68.48;96446.95;618706;229;67258;-59
2023/06/10 10:45:22;;;;;;;;;;;;;;;21.12;68.49;96440.03;618817;229;67047;-60
2023/06/10 10:47:51;;;;;;;;;;;;;;;21.13;68.42;96441.61;618766;229;65083;-60
2023/06/10 10:50:19;;;;;;;;;;;;;;;21.13;68.44;96438.94;618752;229;64979;-60
2023/06/10 10:52:50;;;;;;;;;;;;;;;21.13;68.42;96436.27;618801;229;67053;-60
2023/06/10 10:55:17;;;;;;;;;;;;;;;21.13;68.37;96441.61;618793;228;65057;-60
2023/06/10 10:57:45;;;;;;;;;;;;;;;21.14;68.39;96437.84;618780;229;64921;-60
2023/06/10 11:00:13;;;;;;;;;;;;;;;21.13;68.39;96438.94;618827;229;66677;-59
2023/06/10 11:02:47;;;;;;;;;;;;;;;21.13;68.35;96442.41;618787;229;65033;-60
2023/06/10 11:05:16;;;;;;;;;;;;;;;21.14;68.38;96443.19;618792;229;67201;-60
2023/06/10 11:07:55;;;;;;;;;;;;;;;21.13;68.41;96439.73;618816;229;67442;-60
2023/06/10 11:10:33;;;;;;;;;;;;;;;21.13;68.38;96437.05;618839;229;65347;-60
2023/06/10 11:13:01;;;;;;;;;;;;;;;21.14;68.35;96421.81;617574;229;65038;-59
2023/06/10 11:15:30;;;;;;;;;;;;;;;21.14;68.32;96416.47;615400;230;67054;-59
2023/06/10 11:18:15;;;;;;;;;;;;;;;21.14;68.34;96414.59;615364;230;65116;-59
2023/06/10 11:20:45;;;;;;;;;;;;;;;21.14;68.30;96421.81;615416;230;64977;-59
2023/06/10 11:23:14;;;;;;;;;;;;;;;21.14;68.28;96419.14;615368;230;66870;-59
2023/06/10 11:25:41;;;;;;;;;;;;;;;21.14;68.25;96414.59;614969;230;64942;-59
2023/06/10 11:28:16;;;;;;;;;;;;;;;21.13;68.30;96415.68;615416;230;66890;-59
2023/06/10 11:30:44;;;;;;;;;;;;;;;21.14;68.29;96408.45;615340;228;66974;-59
2023/06/10 11:33:13;;;;;;;;;;;;;;;21.14;68.23;96406.58;615409;230;65174;-59
2023/06/10 11:35:41;;;;;;;;;;;;;;;21.15;68.21;96412.73;615198;230;67235;-59
2023/06/10 11:38:08;;;;;;;;;;;;;;;21.15;68.20;96412.73;615416;230;67100;-59
2023/06/10 11:40:38;;;;;;;;;;;;;;;21.14;68.22;96411.92;615394;230;65117;-59
2023/06/10 11:43:06;;;;;;;;;;;;;;;21.15;68.20;96407.39;614909;230;65627;-59
2023/06/10 11:45:35;;;;;;;;;;;;;;;21.15;68.24;96407.39;615427;230;65031;-59
2023/06/10 11:48:02;;;;;;;;;;;;;;;21.15;68.21;96408.18;615424;230;65107;-59
2023/06/10 11:50:31;;;;;;;;;;;;;;;21.16;68.22;96403.63;615406;230;67198;-59
2023/06/10 11:53:00;;;;;;;;;;;;;;;21.16;68.25;96404.42;615369;230;67163;-59
2023/06/10 11:55:46;;;;;;;;;;;;;;;21.16;68.25;96387.59;615394;230;65133;-59
2023/06/10 11:58:18;;;;;;;;;;;;;;;21.16;68.21;96393.73;615375;230;67226;-59
2023/06/10 12:00:51;;;;;;;;;;;;;;;21.15;68.14;96400.17;615035;230;64946;-59
2023/06/10 12:03:18;;;;;;;;;;;;;;;21.16;68.21;96400.95;615382;230;65095;-59
2023/06/10 12:05:56;;;;;;;;;;;;;;;21.16;68.19;96392.94;615384;230;67194;-59
2023/06/10 12:08:24;;;;;;;;;;;;;;;21.17;68.17;96391.84;615455;230;64875;-59
2023/06/10 12:10:52;;;;;;;;;;;;;;;21.16;68.18;96395.61;614808;230;63031;-59
2023/06/10 12:13:23;;;;;;;;;;;;;;;21.16;68.22;96392.94;616778;229;64988;-59
2023/06/10 12:15:53;;;;;;;;;;;;;;;21.17;68.21;96389.17;618786;229;66743;-59
2023/06/10 12:18:22;;;;;;;;;;;;;;;21.16;68.18;96388.39;618793;229;65051;-59
2023/06/10 12:20:55;;;;;;;;;;;;;;;21.17;68.19;96386.50;618517;229;66955;-59
2023/06/10 12:23:19;;;;;;;;;;;;;;;21.18;68.19;96388.11;618573;229;73993;-59
2023/06/10 12:25:55;;;;;;;;;;;;;;;21.18;68.15;96374.75;618775;229;44879;-59
2023/06/10 12:28:26;;;;;;;;;;;;;;;21.17;68.12;96373.14;618426;227;67257;-59
2023/06/10 12:30:56;;;;;;;;;;;;;;;21.17;68.15;96375.81;618801;229;67029;-59
2023/06/10 12:33:24;;;;;;;;;;;;;;;21.17;68.09;96379.30;616976;229;62748;-59
2023/06/10 12:35:53;;;;;;;;;;;;;;;21.17;68.09;96373.97;618823;229;65057;-59
2023/06/10 12:38:27;;;;;;;;;;;;;;;21.17;68.07;96371.30;618721;229;64765;-59
2023/06/10 12:40:56;;;;;;;;;;;;;;;21.17;68.10;96365.95;618778;229;64973;-59
2023/06/10 12:43:25;;;;;;;;;;;;;;;21.18;68.12;96369.41;618768;229;66998;-59
2023/06/10 12:45:53;;;;;;;;;;;;;;;21.18;68.07;96366.73;618783;229;67684;-59
2023/06/10 12:48:23;;;;;;;;;;;;;;;21.18;68.04;96374.75;618654;229;65081;-59
2023/06/10 12:50:58;;;;;;;;;;;;;;;21.18;68.09;96370.20;618754;229;65255;-59
2023/06/10 12:53:29;;;;;;;;;;;;;;;21.18;68.04;96374.75;618745;229;66916;-59
2023/06/10 12:55:57;;;;;;;;;;;;;;;21.19;68.04;96360.30;618786;229;62915;-59